Time;durP1;ratioP1;P1;durP2;ratioP2;P2;SDS_P1;SDS_P2;PMS_P1;PMS_P2;Temp;Humidity;BMP_temperature;BMP_pressure;BME280_temperature;BME280_humidity;BME280_pressure;Samples;Min_cycle;Max_cycle;Signal;HPM_P1;HPM_P2
2023/06/12 00:01:12;;;;;;;12.60;10.37;;;;;;;-141.97;79.21;47586.34;5032601;28;20169;-82
2023/06/12 00:03:40;;;;;;;17.83;11.33;;;;;;;-141.97;78.49;47557.53;5031170;28;20231;-82
2023/06/12 00:06:09;;;;;;;16.37;11.27;;;;;;;-141.97;78.25;47547.91;5032509;28;20253;-81
2023/06/12 00:08:35;;;;;;;15.43;11.50;;;;;;;-141.97;78.11;47572.91;5029573;28;20154;-81
2023/06/12 00:11:07;;;;;;;15.97;11.50;;;;;;;-141.97;78.82;47559.44;5031958;28;20184;-80
2023/06/12 00:13:33;;;;;;;16.10;11.20;;;;;;;-141.97;78.60;47555.59;5031852;28;20595;-81
2023/06/12 00:15:58;;;;;;;18.03;12.07;;;;;;;-141.97;78.64;47599.81;5032468;28;20182;-81
2023/06/12 00:18:23;;;;;;;17.90;11.50;;;;;;;-141.97;78.23;47557.53;5031992;28;20477;-81
2023/06/12 00:20:49;;;;;;;17.30;11.10;;;;;;;-141.97;78.44;47611.34;5030911;28;20242;-80
2023/06/12 00:23:14;;;;;;;16.43;11.27;;;;;;;-141.97;78.30;47595.97;5032034;28;20163;-79
2023/06/12 00:25:40;;;;;;;18.47;11.03;;;;;;;-141.97;78.32;47615.19;5031712;28;20165;-80
2023/06/12 00:28:05;;;;;;;17.40;11.43;;;;;;;-141.97;78.31;47590.19;5029564;28;20182;-80
2023/06/12 00:30:31;;;;;;;16.60;10.80;;;;;;;-141.97;78.12;47505.63;5032458;28;20170;-80
2023/06/12 00:32:56;;;;;;;18.50;11.73;;;;;;;-141.97;77.96;47595.97;5031302;28;20158;-80
2023/06/12 00:35:22;;;;;;;14.30;10.50;;;;;;;-141.97;78.20;47511.38;5032737;28;20708;-80
2023/06/12 00:37:49;;;;;;;13.00;9.87;;;;;;;-141.97;77.82;47594.03;5031547;28;20173;-81
2023/06/12 00:40:15;;;;;;;14.23;10.13;;;;;;;-141.97;78.08;47582.50;5032974;28;20228;-80
2023/06/12 00:42:47;;;;;;;14.47;10.63;;;;;;;-141.97;77.88;47613.25;5032304;28;20170;-81
2023/06/12 00:45:16;;;;;;;13.30;10.50;;;;;;;-141.97;77.15;47599.81;5032008;28;20166;-81
2023/06/12 00:47:42;;;;;;;16.80;11.17;;;;;;;-141.97;77.96;47578.66;5031681;28;20654;-81
2023/06/12 00:50:12;;;;;;;14.67;11.20;;;;;;;-141.97;78.62;47611.34;5032395;28;20166;-80
2023/06/12 00:52:44;;;;;;;15.27;11.13;;;;;;;-141.97;78.97;47599.81;5032874;28;20224;-80
2023/06/12 00:55:11;;;;;;;14.00;10.90;;;;;;;-141.97;79.01;47592.13;5032342;28;20184;-80
2023/06/12 00:57:38;;;;;;;13.03;10.03;;;;;;;-141.97;79.09;47603.66;5032660;28;20174;-81
2023/06/12 01:00:08;;;;;;;15.27;10.50;;;;;;;-141.97;78.66;47597.88;5032211;28;20197;-80
2023/06/12 01:02:39;;;;;;;16.37;10.97;;;;;;;-141.97;78.90;47578.66;5047318;28;20181;-81
2023/06/12 01:05:08;;;;;;;15.97;10.77;;;;;;;-141.97;78.94;47538.28;5032531;28;20241;-80
2023/06/12 01:07:38;;;;;;;14.33;10.60;;;;;;;-141.97;79.15;47649.78;5032574;28;20162;-80
2023/06/12 01:10:22;;;;;;;15.77;10.73;;;;;;;-141.97;78.77;47742.03;5032583;28;20194;-81
2023/06/12 01:12:49;;;;;;;16.87;10.70;;;;;;;-141.97;78.85;47599.81;5031697;28;20173;-81
2023/06/12 01:15:15;;;;;;;15.07;10.50;;;;;;;-141.97;78.88;47699.75;5032455;28;20200;-80
2023/06/12 01:17:41;;;;;;;15.47;11.23;;;;;;;-141.97;78.99;47588.28;5032237;28;20189;-80
2023/06/12 01:20:11;;;;;;;15.40;10.70;;;;;;;-141.97;79.36;47630.56;5031602;28;20193;-80
2023/06/12 01:22:45;;;;;;;14.20;10.63;;;;;;;-141.97;79.92;47634.41;5031476;28;20249;-80
2023/06/12 01:25:32;;;;;;;14.23;10.93;;;;;;;-141.97;80.05;47572.91;5031394;28;20169;-80
2023/06/12 01:28:11;;;;;;;16.37;10.97;;;;;;;-141.97;79.46;47595.97;5030826;28;20170;-80
2023/06/12 01:31:08;;;;;;;16.60;11.50;;;;;;;-141.97;80.57;47603.66;5031372;28;20227;-80
2023/06/12 01:33:38;;;;;;;16.10;11.07;;;;;;;-141.97;80.32;47634.41;5031261;28;20169;-80
2023/06/12 01:36:06;;;;;;;14.17;10.90;;;;;;;-141.97;80.85;47594.03;5031119;28;20685;-79
2023/06/12 01:38:35;;;;;;;14.23;11.00;;;;;;;-141.97;81.23;47619.03;5030961;28;20277;-80
2023/06/12 01:41:04;;;;;;;15.17;10.80;;;;;;;-141.97;82.47;47626.72;5031433;28;20166;-79
2023/06/12 01:43:30;;;;;;;16.17;11.13;;;;;;;-141.97;84.97;47661.31;5046566;28;20166;-80
2023/06/12 01:45:55;;;;;;;17.07;12.37;;;;;;;-141.97;86.12;47597.88;5030532;28;20228;-80
2023/06/12 01:48:21;;;;;;;15.80;11.40;;;;;;;-141.97;85.74;47517.16;5031317;28;20162;-80
2023/06/12 01:50:46;;;;;;;16.17;11.40;;;;;;;-141.97;84.93;47651.69;5031932;28;20197;-80
2023/06/12 01:53:13;;;;;;;15.57;11.10;;;;;;;-141.97;84.15;47584.44;5031124;28;20166;-81
2023/06/12 01:55:41;;;;;;;15.30;10.57;;;;;;;-141.97;83.00;47601.72;5031670;28;20158;-79
2023/06/12 01:58:06;;;;;;;17.20;11.50;;;;;;;-141.97;82.70;47622.88;5031191;28;20251;-81
2023/06/12 02:00:32;;;;;;;18.33;11.03;;;;;;;-141.97;82.39;47772.78;5031278;28;20241;-80
2023/06/12 02:02:57;;;;;;;15.97;11.27;;;;;;;-141.97;82.43;47776.63;5031301;28;20170;-78
2023/06/12 02:05:22;;;;;;;14.90;11.13;;;;;;;-141.97;82.49;47624.78;5032002;28;20174;-79
2023/06/12 02:07:48;;;;;;;16.40;11.57;;;;;;;-141.97;82.26;47603.66;5031095;28;20166;-78
2023/06/12 02:10:15;;;;;;;17.70;11.93;;;;;;;-141.97;82.27;47594.03;5031033;28;20216;-80
2023/06/12 02:12:41;;;;;;;14.93;12.20;;;;;;;-141.97;81.64;47619.03;5031508;28;20166;-80
2023/06/12 02:15:07;;;;;;;16.30;12.57;;;;;;;-141.97;81.69;47672.84;5033685;28;20185;-80
2023/06/12 02:17:32;;;;;;;15.60;12.10;;;;;;;-141.97;82.06;47546.00;5035146;28;20227;-80
2023/06/12 02:20:00;;;;;;;17.87;12.87;;;;;;;-141.97;81.90;47626.72;5034901;28;20202;-80
2023/06/12 02:22:25;;;;;;;20.60;12.47;;;;;;;-141.97;81.44;47628.63;5034722;28;20257;-80
2023/06/12 02:24:51;;;;;;;21.87;12.30;;;;;;;-141.97;81.44;47599.81;5034754;28;20249;-79
2023/06/12 02:27:16;;;;;;;20.23;12.23;;;;;;;-141.97;81.33;47601.72;5034467;28;20166;-80
2023/06/12 02:29:41;;;;;;;20.50;12.10;;;;;;;-141.97;80.75;47626.72;5034787;28;20205;-81
2023/06/12 02:32:07;;;;;;;15.87;11.63;;;;;;;-141.97;80.07;47634.41;5033896;28;20220;-79
2023/06/12 02:34:32;;;;;;;19.23;12.17;;;;;;;-141.97;79.61;47617.09;5033891;28;20498;-80
2023/06/12 02:36:58;;;;;;;19.53;12.50;;;;;;;-141.97;80.30;47793.94;5034078;28;20646;-80
2023/06/12 02:39:23;;;;;;;19.53;13.20;;;;;;;-141.97;79.75;47615.19;5034078;28;20193;-80
2023/06/12 02:41:49;;;;;;;18.73;12.53;;;;;;;-141.97;79.62;47613.25;5034350;28;20171;-79
2023/06/12 02:44:15;;;;;;;19.57;12.30;;;;;;;-141.97;78.91;47615.19;5033643;28;20184;-79
2023/06/12 02:46:58;;;;;;;16.80;12.60;;;;;;;-141.97;78.88;47603.66;5034028;28;20225;-80
2023/06/12 02:49:25;;;;;;;17.33;12.67;;;;;;;-141.97;79.52;47632.47;5033862;28;20216;-79
2023/06/12 02:51:51;;;;;;;19.17;12.90;;;;;;;-141.97;80.21;47647.84;5034241;28;20165;-78
2023/06/12 02:54:18;;;;;;;19.10;13.73;;;;;;;-141.97;81.01;47530.59;5034014;28;20649;-79
2023/06/12 02:56:46;;;;;;;20.33;13.60;;;;;;;-141.97;81.60;47503.69;5033061;28;20717;-80
2023/06/12 02:59:16;;;;;;;19.17;13.23;;;;;;;-141.97;81.28;47628.63;5033807;28;20194;-79
2023/06/12 03:01:43;;;;;;;20.30;13.87;;;;;;;-141.97;80.63;47684.38;5033584;28;20165;-81
2023/06/12 03:04:20;;;;;;;20.77;13.77;;;;;;;-141.97;81.09;47588.28;5033832;28;20159;-80
2023/06/12 03:06:51;;;;;;;20.40;13.77;;;;;;;-141.97;81.16;47599.81;5033325;28;20249;-80
2023/06/12 03:09:18;;;;;;;22.47;14.00;;;;;;;-141.97;80.57;47740.13;5033216;28;20253;-80
2023/06/12 03:11:44;;;;;;;22.73;13.93;;;;;;;-141.97;80.72;47630.56;5033803;28;20162;-79
2023/06/12 03:14:09;;;;;;;21.23;13.73;;;;;;;-141.97;80.28;47617.09;5033604;28;20173;-80
2023/06/12 03:16:36;;;;;;;22.27;14.60;;;;;;;-141.97;79.94;47595.97;5033505;28;20544;-80
2023/06/12 03:19:02;;;;;;;22.00;13.97;;;;;;;-141.97;79.93;47703.59;5033568;28;20273;-80
2023/06/12 03:21:27;;;;;;;22.13;14.10;;;;;;;-141.97;80.07;47626.72;5033338;28;20214;-79
2023/06/12 03:23:53;;;;;;;21.20;14.30;;;;;;;-141.97;79.95;47617.09;5033410;28;20617;-79
2023/06/12 03:26:18;;;;;;;21.90;14.50;;;;;;;-141.97;79.40;47763.19;5032770;28;20559;-80
2023/06/12 03:28:45;;;;;;;22.57;14.17;;;;;;;-141.97;78.88;47624.78;5032865;28;20615;-80
2023/06/12 03:31:11;;;;;;;25.90;14.60;;;;;;;-141.97;78.68;47615.19;5032798;28;20181;-80
2023/06/12 03:33:36;;;;;;;24.10;15.40;;;;;;;-141.97;78.27;47638.25;5032761;28;20154;-80
2023/06/12 03:36:02;;;;;;;26.67;13.47;;;;;;;-141.97;77.92;47603.66;5032738;28;20170;-79
2023/06/12 03:38:27;;;;;;;22.33;13.30;;;;;;;-141.97;76.84;47622.88;5033430;28;20638;-79
2023/06/12 03:40:53;;;;;;;23.67;13.23;;;;;;;-141.97;76.26;47613.25;5033116;28;20623;-79
2023/06/12 03:43:18;;;;;;;19.27;13.03;;;;;;;-141.97;75.57;47694.00;5032253;28;20223;-78
2023/06/12 03:45:43;;;;;;;25.97;13.20;;;;;;;-141.97;75.41;47599.81;5033356;28;20165;-78
2023/06/12 03:48:09;;;;;;;21.57;13.23;;;;;;;-141.97;75.38;47597.88;5033065;28;20190;-79
2023/06/12 03:50:34;;;;;;;23.10;13.50;;;;;;;-141.97;75.44;47592.13;5032161;28;20166;-79
2023/06/12 03:53:00;;;;;;;22.73;13.60;;;;;;;-141.97;75.30;47611.34;5032780;28;20162;-79
2023/06/12 03:55:25;;;;;;;29.00;14.03;;;;;;;-141.97;75.16;47599.81;5032646;28;20163;-79
2023/06/12 03:57:51;;;;;;;25.47;15.00;;;;;;;-141.97;74.71;47522.91;5032206;28;20162;-79
2023/06/12 04:00:17;;;;;;;18.07;13.27;;;;;;;-141.97;74.39;47590.19;5032116;28;20233;-79
2023/06/12 04:02:43;;;;;;;22.20;13.67;;;;;;;-141.97;74.15;47759.34;5032031;28;20603;-79
2023/06/12 04:05:08;;;;;;;20.57;13.77;;;;;;;-141.97;74.13;47584.44;5032233;28;20173;-78
2023/06/12 04:07:37;;;;;;;15.57;12.47;;;;;;;-141.97;75.04;47592.13;5032209;28;20166;-78
2023/06/12 04:10:03;;;;;;;21.67;13.40;;;;;;;-141.97;76.92;47624.78;5032223;28;20174;-79
2023/06/12 04:12:29;;;;;;;16.63;13.07;;;;;;;-141.97;77.01;47740.13;5010122;28;20186;-78
2023/06/12 04:14:55;;;;;;;20.23;14.30;;;;;;;-141.97;77.90;47611.34;5030075;28;20533;-78
2023/06/12 04:17:20;;;;;;;18.30;13.30;;;;;;;-141.97;76.84;47595.97;5031510;28;20181;-78
2023/06/12 04:19:48;;;;;;;18.63;13.83;;;;;;;-141.97;75.96;47649.78;5031296;28;20579;-79
2023/06/12 04:22:15;;;;;;;17.20;12.43;;;;;;;-141.97;75.27;47828.53;5031071;28;20162;-78
2023/06/12 04:24:42;;;;;;;15.00;12.67;;;;;;;-141.97;74.76;47619.03;5029467;28;20166;-79
2023/06/12 04:27:10;;;;;;;17.60;12.43;;;;;;;-141.97;74.02;47599.81;5031332;28;20593;-79
2023/06/12 04:29:37;;;;;;;16.63;12.30;;;;;;;-141.97;72.75;47542.16;5030993;28;20204;-79
2023/06/12 04:32:06;;;;;;;18.30;12.03;;;;;;;-141.97;71.54;47705.53;5031160;28;20171;-80
2023/06/12 04:34:40;;;;;;;16.30;12.03;;;;;;;-141.97;70.84;47609.41;5030892;28;20227;-79
2023/06/12 04:37:13;;;;;;;17.30;12.10;;;;;;;-141.97;70.14;47605.56;5046207;28;20196;-79
2023/06/12 04:39:40;;;;;;;20.00;12.60;;;;;;;-141.97;69.65;47642.09;5031238;28;20194;-80
2023/06/12 04:42:10;;;;;;;18.87;13.27;;;;;;;-141.97;69.98;47615.19;5031112;28;20162;-79
2023/06/12 04:44:37;;;;;;;19.87;12.67;;;;;;;-141.97;69.51;47611.34;5029022;28;20166;-78
2023/06/12 04:47:11;;;;;;;16.67;11.90;;;;;;;-141.97;69.44;47592.13;5030512;28;20304;-79
2023/06/12 04:49:40;;;;;;;19.60;12.30;;;;;;;-141.97;68.45;47586.34;5030651;28;20175;-79
2023/06/12 04:52:06;;;;;;;16.20;12.33;;;;;;;-141.97;68.60;47569.06;5046855;28;20176;-79
2023/06/12 04:54:35;;;;;;;23.70;12.70;;;;;;;-141.97;68.64;47599.81;5030095;28;20595;-79
2023/06/12 04:57:07;;;;;;;17.50;12.10;;;;;;;-141.97;69.92;47597.88;5010672;28;20167;-78
2023/06/12 04:59:38;;;;;;;16.57;11.43;;;;;;;-141.97;71.71;47657.47;5011753;28;20289;-79
2023/06/12 05:02:10;;;;;;;18.17;11.70;;;;;;;-141.97;72.03;47594.03;5028403;28;20212;-80
2023/06/12 05:04:37;;;;;;;17.70;11.20;;;;;;;-141.97;71.11;47580.59;5030185;28;20544;-80
2023/06/12 05:07:04;;;;;;;17.37;11.63;;;;;;;-141.97;70.56;47644.00;5029474;28;20236;-79
2023/06/12 05:09:30;;;;;;;17.90;11.67;;;;;;;-141.97;70.89;47611.34;5029389;28;20180;-79
2023/06/12 05:11:56;;;;;;;17.90;11.43;;;;;;;-141.97;69.46;47530.59;5030699;28;20162;-80
2023/06/12 05:14:21;;;;;;;14.40;9.40;;;;;;;-141.97;68.59;47595.97;5030788;28;20677;-80
2023/06/12 05:16:47;;;;;;;11.67;9.07;;;;;;;-141.97;68.19;47584.44;5021789;28;20236;-79
2023/06/12 05:19:13;;;;;;;14.97;10.20;;;;;;;-141.97;66.58;47524.84;5029462;28;20288;-81
2023/06/12 05:21:41;;;;;;;14.37;9.87;;;;;;;-141.97;64.16;47555.59;5031224;28;20174;-79
2023/06/12 05:24:07;;;;;;;13.97;10.27;;;;;;;-141.97;63.33;47561.38;5030854;28;20162;-81
2023/06/12 05:26:32;;;;;;;17.00;9.83;;;;;;;-141.97;62.20;47569.06;5030960;28;20281;-81
2023/06/12 05:28:57;;;;;;;14.33;9.63;;;;;;;-141.97;61.27;47578.66;5030995;28;20219;-81
2023/06/12 05:31:23;;;;;;;15.07;9.43;;;;;;;-141.97;60.61;47503.69;5031478;28;20667;-83
2023/06/12 05:33:48;;;;;;;12.43;8.40;;;;;;;-141.97;59.09;47570.97;5031891;28;20177;-81
2023/06/12 05:36:14;;;;;;;11.20;8.43;;;;;;;-141.97;57.83;47720.91;5031258;28;20189;-80
2023/06/12 05:38:45;;;;;;;11.93;8.93;;;;;;;-141.97;58.76;47544.06;5031291;28;20189;-81
2023/06/12 05:41:12;;;;;;;12.70;7.70;;;;;;;-141.97;58.50;47561.38;5031354;28;20629;-81
2023/06/12 05:43:38;;;;;;;11.23;7.70;;;;;;;-141.97;57.99;47488.31;5031658;28;20177;-80
2023/06/12 05:46:04;;;;;;;11.40;8.43;;;;;;;-141.97;58.43;47472.94;5029638;28;20554;-80
2023/06/12 05:48:29;;;;;;;12.57;8.43;;;;;;;-141.97;58.36;47440.28;5032530;28;20247;-80
2023/06/12 05:50:55;;;;;;;11.47;8.47;;;;;;;-141.97;59.31;47549.84;5034607;28;20241;-80
2023/06/12 05:53:20;;;;;;;12.23;8.80;;;;;;;-141.97;59.77;47509.47;5035114;28;20629;-80
2023/06/12 05:55:46;;;;;;;10.77;8.23;;;;;;;-141.97;59.79;47426.81;5034605;28;20880;-81
2023/06/12 05:58:11;;;;;;;12.17;7.80;;;;;;;-141.97;59.20;47494.09;5031710;28;20197;-83
2023/06/12 06:00:37;;;;;;;10.37;8.30;;;;;;;-141.97;59.53;47515.22;5035321;28;20657;-82
2023/06/12 06:03:04;;;;;;;15.97;8.00;;;;;;;-141.97;59.40;47471.03;5034500;28;20162;-80
2023/06/12 06:05:30;;;;;;;10.27;7.43;;;;;;;-141.97;59.98;47597.88;5033661;28;20158;-80
2023/06/12 06:07:55;;;;;;;10.63;8.43;;;;;;;-141.97;59.92;47767.03;5033633;28;20184;-79
2023/06/12 06:10:21;;;;;;;19.20;8.43;;;;;;;-141.97;59.03;47549.84;5033950;28;20155;-79
2023/06/12 06:12:46;;;;;;;11.33;8.40;;;;;;;-141.97;59.17;47446.03;5035430;28;20224;-78
2023/06/12 06:15:12;;;;;;;10.63;8.80;;;;;;;-141.97;60.27;47557.53;5033720;28;20170;-77
2023/06/12 06:17:37;;;;;;;12.13;9.27;;;;;;;-141.97;60.16;47572.91;5033068;28;20718;-78
2023/06/12 06:20:05;;;;;;;16.00;9.07;;;;;;;-141.97;59.04;47584.44;5032978;28;20269;-78
2023/06/12 06:22:31;;;;;;;12.20;8.83;;;;;;;-141.97;57.69;47503.69;5033112;28;20174;-78
2023/06/12 06:24:57;;;;;;;12.80;8.87;;;;;;;-141.97;57.60;47547.91;5032312;28;20170;-79
2023/06/12 06:27:22;;;;;;;13.93;8.90;;;;;;;-141.97;57.43;47403.75;5032719;28;20165;-79
2023/06/12 06:29:48;;;;;;;12.37;9.30;;;;;;;-141.97;57.44;47524.84;5033170;28;20173;-78
2023/06/12 06:32:13;;;;;;;12.13;9.43;;;;;;;-141.97;58.55;47536.38;5033284;28;20197;-79
2023/06/12 06:34:39;;;;;;;12.57;8.83;;;;;;;-141.97;57.34;47530.59;5031506;28;20277;-78
2023/06/12 06:37:04;;;;;;;12.63;9.40;;;;;;;-141.97;57.82;47688.22;5033299;28;20170;-79
2023/06/12 06:39:29;;;;;;;11.83;9.87;;;;;;;-141.97;58.67;47499.84;5031345;28;20495;-78
2023/06/12 06:41:55;;;;;;;14.93;9.90;;;;;;;-141.97;57.05;47542.16;5031508;28;20170;-77
2023/06/12 06:44:20;;;;;;;13.87;8.97;;;;;;;-141.97;55.81;47503.69;5033695;28;20227;-86
2023/06/12 06:46:46;;;;;;;12.27;8.87;;;;;;;-141.97;54.70;47530.59;5038624;28;20238;-86
2023/06/12 06:49:11;;;;;;;16.83;8.83;;;;;;;-141.97;53.69;47640.16;5040141;28;20557;-85
2023/06/12 06:51:37;;;;;;;13.80;9.00;;;;;;;-141.97;53.18;47478.72;5037173;28;20181;-85
2023/06/12 06:54:02;;;;;;;11.27;8.38;;;;;;;-141.97;52.63;47524.84;5036024;28;20249;-85
2023/06/12 06:56:29;;;;;;;11.23;8.30;;;;;;;-141.97;52.21;47722.81;5032661;28;20203;-85
2023/06/12 06:58:54;;;;;;;11.77;8.43;;;;;;;-141.97;52.17;47469.09;5034275;28;20196;-85
2023/06/12 07:01:20;;;;;;;12.98;10.15;;;;;;;-141.97;52.22;47507.53;5033366;28;20624;-86
2023/06/12 07:03:45;;;;;;;16.25;8.80;;;;;;;-141.97;53.09;47426.81;5032915;28;20553;-85
2023/06/12 07:06:11;;;;;;;12.93;8.32;;;;;;;-141.97;53.41;47718.97;5033026;28;20201;-84
2023/06/12 07:08:36;;;;;;;14.55;8.90;;;;;;;-141.97;52.95;47417.22;5034302;28;20194;-84
2023/06/12 07:11:01;;;;;;;15.15;9.00;;;;;;;-141.97;53.33;47292.28;5033971;28;20588;-85
2023/06/12 07:13:27;;;;;;;19.92;12.18;;;;;;;-141.97;53.74;47503.69;5024017;28;20669;-86
2023/06/12 07:15:52;;;;;;;15.98;10.00;;;;;;;-141.97;52.80;47540.22;5035255;28;20328;-87
2023/06/12 07:18:18;;;;;;;13.30;9.10;;;;;;;-141.97;52.89;47524.84;5032904;28;20637;-88
2023/06/12 07:20:43;;;;;;;12.70;9.07;;;;;;;-141.97;53.48;47480.63;5033216;28;20174;-87
2023/06/12 07:23:09;;;;;;;12.82;9.13;;;;;;;-141.97;53.21;47505.63;5034198;28;20168;-88
2023/06/12 07:25:34;;;;;;;11.02;8.25;;;;;;;-141.97;52.43;47446.03;5034220;28;20168;-86
2023/06/12 07:28:00;;;;;;;13.10;8.40;;;;;;;-141.97;51.30;47532.53;5034559;28;20168;-86
2023/06/12 07:30:26;;;;;;;12.95;8.60;;;;;;;-141.97;51.51;47496.00;5034392;28;20166;-87
2023/06/12 07:32:52;;;;;;;14.40;9.05;;;;;;;-141.97;51.27;47334.56;5031495;28;20172;-87
2023/06/12 07:35:18;;;;;;;15.40;8.50;;;;;;;-141.97;52.25;47496.00;5034213;28;20189;-86
2023/06/12 07:37:45;;;;;;;13.57;8.48;;;;;;;-141.97;52.59;47661.31;5032874;28;20160;-87
2023/06/12 07:40:11;;;;;;;12.70;8.13;;;;;;;-141.97;52.14;47634.41;5032445;28;20219;-87
2023/06/12 07:42:37;;;;;;;15.07;8.50;;;;;;;-141.97;51.17;47507.53;5032563;28;20246;-87
2023/06/12 07:45:03;;;;;;;12.77;8.50;;;;;;;-141.97;52.07;47684.38;5032376;28;20575;-87
2023/06/12 07:47:28;;;;;;;12.15;8.50;;;;;;;-141.97;50.55;47319.19;5033143;28;20228;-86
2023/06/12 07:49:54;;;;;;;11.23;8.20;;;;;;;-141.97;49.37;47323.03;5032633;28;20219;-86
2023/06/12 07:52:20;;;;;;;15.85;8.80;;;;;;;-141.97;49.13;47572.91;5032191;28;20206;-85
2023/06/12 07:54:47;;;;;;;11.68;7.88;;;;;;;-141.97;49.68;47328.81;5033372;28;20376;-85
2023/06/12 07:57:13;;;;;;;14.38;8.13;;;;;;;-141.97;49.74;47330.72;5032166;28;20961;-86
2023/06/12 07:59:39;;;;;;;15.68;8.55;;;;;;;-141.97;49.77;47349.94;5032466;28;20200;-86
2023/06/12 08:02:06;;;;;;;15.88;7.43;;;;;;;-141.97;49.63;47478.72;5031684;28;20241;-87
2023/06/12 08:04:33;;;;;;;13.52;7.93;;;;;;;-141.97;49.33;47403.75;5032771;28;20217;-86
2023/06/12 08:07:00;;;;;;;13.13;7.70;;;;;;;-141.97;47.86;47613.25;5033085;28;20600;-86
2023/06/12 08:09:26;;;;;;;12.80;7.55;;;;;;;-141.97;48.47;47294.22;5032772;28;20231;-86
2023/06/12 08:11:51;;;;;;;11.85;6.60;;;;;;;-141.97;47.60;47707.44;5031817;28;20178;-86
2023/06/12 08:14:17;;;;;;;11.07;7.13;;;;;;;-141.97;46.84;47369.16;5017402;28;20693;-86
2023/06/12 08:16:43;;;;;;;12.77;6.75;;;;;;;-141.97;46.10;47472.94;5032400;28;20169;-86
2023/06/12 08:19:09;;;;;;;10.23;7.15;;;;;;;-141.97;45.53;47451.81;5032806;28;20205;-84
2023/06/12 08:21:35;;;;;;;12.15;6.40;;;;;;;-141.97;46.40;47684.38;5031440;28;20263;-84
2023/06/12 08:24:00;;;;;;;11.93;6.60;;;;;;;-141.97;45.63;47728.59;5032618;28;20626;-86
2023/06/12 08:26:26;;;;;;;9.30;6.53;;;;;;;-141.97;45.84;47344.19;5031856;28;20591;-84
2023/06/12 08:28:52;;;;;;;12.18;7.28;;;;;;;-141.97;45.62;47351.88;5032653;28;20239;-85
2023/06/12 08:31:18;;;;;;;7.47;6.68;;;;;;;-141.97;45.67;47484.47;5032868;28;20256;-84
2023/06/12 08:33:43;;;;;;;9.25;6.75;;;;;;;-141.97;45.63;47672.84;5030627;28;20213;-86
2023/06/12 08:36:09;;;;;;;14.98;7.22;;;;;;;-141.97;45.91;47497.94;5032938;28;20193;-86
2023/06/12 08:38:34;;;;;;;11.00;6.97;;;;;;;-141.97;45.01;47422.97;5032684;28;20197;-86
2023/06/12 08:41:02;;;;;;;11.50;6.68;;;;;;;-141.97;45.36;47478.72;5032013;28;20176;-85
2023/06/12 08:43:28;;;;;;;12.82;7.90;;;;;;;-141.97;47.63;47390.31;5032246;28;20212;-84
2023/06/12 08:45:57;;;;;;;11.48;7.57;;;;;;;-141.97;47.69;47399.91;5032073;28;20225;-85
2023/06/12 08:48:25;;;;;;;9.98;7.22;;;;;;;-141.97;47.26;47484.47;5032252;28;20247;-85
2023/06/12 08:50:52;;;;;;;10.88;7.15;;;;;;;-141.97;46.24;47455.66;5032246;28;20180;-85
2023/06/12 08:53:18;;;;;;;10.60;7.10;;;;;;;-141.97;45.95;47461.41;5031546;28;20180;-85
2023/06/12 08:55:44;;;;;;;9.10;7.03;;;;;;;-141.97;45.76;47482.56;5032097;28;20183;-86
2023/06/12 08:58:11;;;;;;;11.88;7.07;;;;;;;-141.97;46.20;47367.25;5032993;28;20629;-84
2023/06/12 09:00:37;;;;;;;11.15;6.97;;;;;;;-141.97;47.70;47446.03;5033201;28;20186;-84
2023/06/12 09:03:06;;;;;;;9.93;6.63;;;;;;;-141.97;47.77;47494.09;5031498;28;20633;-85
2023/06/12 09:05:38;;;;;;;9.48;6.63;;;;;;;-141.97;47.46;47471.03;5031203;28;20256;-85
2023/06/12 09:08:04;;;;;;;9.10;6.93;;;;;;;-141.97;46.83;47472.94;5032100;28;20171;-85
2023/06/12 09:10:31;;;;;;;12.68;7.60;;;;;;;-141.97;47.51;47457.56;5031408;28;20168;-85
2023/06/12 09:12:57;;;;;;;11.98;7.15;;;;;;;-141.97;47.28;47415.28;5031557;28;20233;-85
2023/06/12 09:15:23;;;;;;;9.57;7.38;;;;;;;-141.97;47.25;47421.06;5031020;28;20294;-85
2023/06/12 09:17:50;;;;;;;8.32;6.40;;;;;;;-141.97;47.45;47472.94;5019785;28;20227;-85
2023/06/12 09:20:23;;;;;;;10.45;6.55;;;;;;;-141.97;46.61;47449.88;5031795;28;20695;-86
2023/06/12 09:22:51;;;;;;;11.32;6.95;;;;;;;-141.97;45.63;47749.72;5031284;28;20815;-85
2023/06/12 09:25:18;;;;;;;9.57;6.18;;;;;;;-141.97;44.99;47465.25;5035161;28;20169;-85
2023/06/12 09:27:44;;;;;;;9.23;6.47;;;;;;;-141.97;44.10;47472.94;5035628;28;20162;-85
2023/06/12 09:30:10;;;;;;;8.82;6.30;;;;;;;-141.97;45.09;47409.53;5035132;28;20215;-85
2023/06/12 09:32:36;;;;;;;9.50;6.18;;;;;;;-141.97;44.56;47603.66;5035669;28;20162;-84
2023/06/12 09:35:03;;;;;;;8.15;5.57;;;;;;;-141.97;45.44;47524.84;5034950;28;20279;-84
2023/06/12 09:37:29;;;;;;;8.13;6.10;;;;;;;-141.97;45.49;47490.25;5035415;28;20181;-84
2023/06/12 09:40:10;;;;;;;9.13;6.05;;;;;;;-141.97;44.79;47465.25;5035311;28;20580;-84
2023/06/12 09:42:37;;;;;;;9.35;5.80;;;;;;;-141.97;44.10;47386.47;5035426;28;20193;-84
2023/06/12 09:45:13;;;;;;;10.48;5.80;;;;;;;-141.97;44.57;47451.81;5034583;28;20200;-84
2023/06/12 09:47:42;;;;;;;8.30;5.78;;;;;;;-141.97;44.67;47417.22;5035347;28;20304;-84
2023/06/12 09:50:09;;;;;;;8.55;5.72;;;;;;;-141.97;44.57;47449.88;5035739;28;20171;-85
2023/06/12 09:52:36;;;;;;;10.27;6.38;;;;;;;-141.97;44.48;47492.16;5035715;28;20168;-84
2023/06/12 09:55:05;;;;;;;10.45;6.60;;;;;;;-141.97;45.14;47323.03;5034999;28;20182;-85
2023/06/12 09:57:35;;;;;;;10.73;6.28;;;;;;;-141.97;45.48;47455.66;5035038;28;20196;-85
2023/06/12 10:00:02;;;;;;;10.38;6.88;;;;;;;-141.97;45.46;47463.34;5030203;28;20214;-87
2023/06/12 10:02:28;;;;;;;10.20;6.88;;;;;;;-141.97;45.03;47444.13;5030050;28;20174;-85
2023/06/12 10:05:01;;;;;;;11.77;6.50;;;;;;;-141.97;44.65;47323.03;5034739;28;20173;-84
2023/06/12 10:07:31;;;;;;;8.90;6.45;;;;;;;-141.97;43.72;47484.47;5034903;28;20170;-85
2023/06/12 10:09:57;;;;;;;13.35;6.82;;;;;;;-141.97;44.19;47469.09;5033571;28;20194;-86
2023/06/12 10:12:24;;;;;;;10.15;6.90;;;;;;;-141.97;44.48;47384.53;5033457;28;20598;-85
2023/06/12 10:14:50;;;;;;;10.75;7.10;;;;;;;-141.97;44.65;47699.75;5034160;28;20246;-86
2023/06/12 10:17:16;;;;;;;16.55;7.18;;;;;;;-141.97;44.91;47407.59;5035004;28;20177;-86
2023/06/12 10:19:47;;;;;;;14.10;7.68;;;;;;;-141.97;44.21;47692.06;5031812;28;20287;-85
2023/06/12 10:22:13;;;;;;;8.38;7.22;;;;;;;-141.97;44.04;47424.91;5030690;28;20182;-85
2023/06/12 10:24:40;;;;;;;10.70;7.00;;;;;;;-141.97;44.19;47240.41;5034949;28;20169;-85
2023/06/12 10:27:06;;;;;;;10.50;7.00;;;;;;;-141.97;42.11;47365.31;5034004;28;20255;-86
2023/06/12 10:29:36;;;;;;;7.70;6.07;;;;;;;-141.97;41.81;47432.59;5034959;28;20161;-86
2023/06/12 10:32:09;;;;;;;9.05;7.07;;;;;;;-141.97;42.34;47161.59;5054039;28;20191;-85
2023/06/12 10:34:40;;;;;;;8.15;6.85;;;;;;;-141.97;42.60;47421.06;5052660;28;20600;-86
2023/06/12 10:37:28;;;;;;;14.55;7.28;;;;;;;-141.97;42.12;47672.84;5036016;28;20279;-85
2023/06/12 10:40:16;;;;;;;7.72;6.22;;;;;;;-141.97;42.15;47434.50;5052704;28;20305;-86
2023/06/12 10:42:42;;;;;;;12.55;7.47;;;;;;;-141.97;43.43;47436.44;5043378;28;20239;-86
2023/06/12 10:45:28;;;;;;;9.45;8.07;;;;;;;-141.97;43.85;47276.91;5052140;28;20262;-86
2023/06/12 10:48:05;;;;;;;11.10;7.50;;;;;;;-141.97;43.50;47436.44;5052165;28;20200;-86
2023/06/12 10:50:37;;;;;;;12.70;8.02;;;;;;;-141.97;43.27;47321.13;5051592;28;20232;-86
2023/06/12 10:53:05;;;;;;;10.30;8.48;;;;;;;-141.97;44.30;47413.38;5034777;28;20176;-85
2023/06/12 10:55:32;;;;;;;11.70;8.57;;;;;;;-141.97;44.20;47455.66;5052102;28;20295;-85
2023/06/12 10:58:00;;;;;;;9.68;7.50;;;;;;;-141.97;43.96;47378.78;5052876;28;20181;-86
2023/06/12 11:00:33;;;;;;;11.98;7.90;;;;;;;-141.97;44.23;47265.38;5051902;28;20695;-87
2023/06/12 11:03:12;;;;;;;11.27;7.88;;;;;;;-141.97;44.59;47417.22;5052274;28;20647;-84
2023/06/12 11:05:44;;;;;;;11.85;8.00;;;;;;;-141.97;44.74;47438.34;5051802;28;20181;-86
2023/06/12 11:08:10;;;;;;;11.18;7.85;;;;;;;-141.97;44.48;47695.91;5051973;28;20643;-85